sensor_id;sensor_type;location;lat;lon;timestamp;temperature;humidity
67194;DHT22;54121;53.508;49.422;2023-05-29T00:00:52;24.90;40.90
67194;DHT22;54121;53.508;49.422;2023-05-29T00:03:18;26.40;41.90
67194;DHT22;54121;53.508;49.422;2023-05-29T00:05:44;26.50;41.50
67194;DHT22;54121;53.508;49.422;2023-05-29T00:08:10;26.20;42.20
67194;DHT22;54121;53.508;49.422;2023-05-29T00:10:36;26.10;42.30
67194;DHT22;54121;53.508;49.422;2023-05-29T00:13:03;26.00;42.60
67194;DHT22;54121;53.508;49.422;2023-05-29T00:15:29;26.00;42.80
67194;DHT22;54121;53.508;49.422;2023-05-29T00:17:56;26.20;42.40
67194;DHT22;54121;53.508;49.422;2023-05-29T00:20:22;26.20;42.20
67194;DHT22;54121;53.508;49.422;2023-05-29T00:22:48;26.00;42.50
67194;DHT22;54121;53.508;49.422;2023-05-29T00:25:15;26.00;42.30
67194;DHT22;54121;53.508;49.422;2023-05-29T00:27:41;26.00;42.30
67194;DHT22;54121;53.508;49.422;2023-05-29T00:30:07;25.80;42.90
67194;DHT22;54121;53.508;49.422;2023-05-29T00:32:34;25.90;43.00
67194;DHT22;54121;53.508;49.422;2023-05-29T00:35:00;25.70;43.20
67194;DHT22;54121;53.508;49.422;2023-05-29T00:37:26;25.70;43.40
67194;DHT22;54121;53.508;49.422;2023-05-29T00:39:53;25.70;43.20
67194;DHT22;54121;53.508;49.422;2023-05-29T00:42:19;25.70;43.40
67194;DHT22;54121;53.508;49.422;2023-05-29T00:44:45;25.60;43.80
67194;DHT22;54121;53.508;49.422;2023-05-29T00:47:12;25.60;43.80
67194;DHT22;54121;53.508;49.422;2023-05-29T00:49:38;25.60;44.10
67194;DHT22;54121;53.508;49.422;2023-05-29T00:52:04;25.50;44.50
67194;DHT22;54121;53.508;49.422;2023-05-29T00:54:32;25.50;44.50
67194;DHT22;54121;53.508;49.422;2023-05-29T00:56:59;25.40;44.60
67194;DHT22;54121;53.508;49.422;2023-05-29T00:59:26;25.70;44.10
67194;DHT22;54121;53.508;49.422;2023-05-29T01:01:54;25.90;43.70
67194;DHT22;54121;53.508;49.422;2023-05-29T01:04:21;25.60;44.20
67194;DHT22;54121;53.508;49.422;2023-05-29T01:06:49;25.60;44.40
67194;DHT22;54121;53.508;49.422;2023-05-29T01:09:15;25.60;44.40
67194;DHT22;54121;53.508;49.422;2023-05-29T01:14:16;25.80;44.30
67194;DHT22;54121;53.508;49.422;2023-05-29T01:19:15;25.90;43.90
67194;DHT22;54121;53.508;49.422;2023-05-29T01:21:48;25.80;44.00
67194;DHT22;54121;53.508;49.422;2023-05-29T01:27:07;26.00;43.80
67194;DHT22;54121;53.508;49.422;2023-05-29T01:29:36;25.80;44.30
67194;DHT22;54121;53.508;49.422;2023-05-29T01:32:03;25.80;44.40
67194;DHT22;54121;53.508;49.422;2023-05-29T01:34:30;25.90;44.30
67194;DHT22;54121;53.508;49.422;2023-05-29T01:36:57;26.00;43.70
67194;DHT22;54121;53.508;49.422;2023-05-29T01:39:23;26.00;43.80
67194;DHT22;54121;53.508;49.422;2023-05-29T01:41:50;26.10;43.90
67194;DHT22;54121;53.508;49.422;2023-05-29T01:44:17;26.10;43.80
67194;DHT22;54121;53.508;49.422;2023-05-29T01:46:44;26.00;43.80
67194;DHT22;54121;53.508;49.422;2023-05-29T01:49:11;26.10;43.50
67194;DHT22;54121;53.508;49.422;2023-05-29T01:51:38;26.10;44.80
67194;DHT22;54121;53.508;49.422;2023-05-29T01:54:05;26.10;43.50
67194;DHT22;54121;53.508;49.422;2023-05-29T01:56:31;26.00;43.90
67194;DHT22;54121;53.508;49.422;2023-05-29T01:59:00;26.20;43.40
67194;DHT22;54121;53.508;49.422;2023-05-29T02:01:27;26.10;43.50
67194;DHT22;54121;53.508;49.422;2023-05-29T02:03:53;26.10;43.60
67194;DHT22;54121;53.508;49.422;2023-05-29T02:06:20;26.40;43.00
67194;DHT22;54121;53.508;49.422;2023-05-29T02:08:46;26.60;42.30
67194;DHT22;54121;53.508;49.422;2023-05-29T02:11:13;26.90;41.70
67194;DHT22;54121;53.508;49.422;2023-05-29T02:13:44;27.20;40.80
67194;DHT22;54121;53.508;49.422;2023-05-29T02:16:10;27.40;40.10
67194;DHT22;54121;53.508;49.422;2023-05-29T02:18:36;27.70;39.10
67194;DHT22;54121;53.508;49.422;2023-05-29T02:21:02;27.90;38.90
67194;DHT22;54121;53.508;49.422;2023-05-29T02:23:28;28.10;38.20
67194;DHT22;54121;53.508;49.422;2023-05-29T02:25:55;28.40;37.50
67194;DHT22;54121;53.508;49.422;2023-05-29T02:28:21;28.70;36.70
67194;DHT22;54121;53.508;49.422;2023-05-29T02:30:47;28.80;36.30
67194;DHT22;54121;53.508;49.422;2023-05-29T02:33:14;29.00;35.90
67194;DHT22;54121;53.508;49.422;2023-05-29T02:35:40;29.20;35.30
67194;DHT22;54121;53.508;49.422;2023-05-29T02:38:06;29.20;35.20
67194;DHT22;54121;53.508;49.422;2023-05-29T02:40:33;29.60;34.20
67194;DHT22;54121;53.508;49.422;2023-05-29T02:42:59;29.60;33.90
67194;DHT22;54121;53.508;49.422;2023-05-29T02:45:25;30.00;33.00
67194;DHT22;54121;53.508;49.422;2023-05-29T02:47:51;30.30;32.30
67194;DHT22;54121;53.508;49.422;2023-05-29T02:50:17;30.30;32.10
67194;DHT22;54121;53.508;49.422;2023-05-29T02:52:44;30.50;31.60
67194;DHT22;54121;53.508;49.422;2023-05-29T02:55:10;30.50;31.60
67194;DHT22;54121;53.508;49.422;2023-05-29T02:57:36;30.30;31.90
67194;DHT22;54121;53.508;49.422;2023-05-29T03:00:03;30.80;31.10
67194;DHT22;54121;53.508;49.422;2023-05-29T03:02:33;30.90;30.50
67194;DHT22;54121;53.508;49.422;2023-05-29T03:05:02;31.30;30.30
67194;DHT22;54121;53.508;49.422;2023-05-29T03:07:29;31.40;30.00
67194;DHT22;54121;53.508;49.422;2023-05-29T03:09:55;32.00;29.30
67194;DHT22;54121;53.508;49.422;2023-05-29T03:12:23;32.30;28.80
67194;DHT22;54121;53.508;49.422;2023-05-29T03:14:50;32.40;28.60
67194;DHT22;54121;53.508;49.422;2023-05-29T03:17:16;32.50;28.70
67194;DHT22;54121;53.508;49.422;2023-05-29T03:19:42;33.00;28.00
67194;DHT22;54121;53.508;49.422;2023-05-29T03:22:09;33.40;27.60
67194;DHT22;54121;53.508;49.422;2023-05-29T03:24:35;33.50;27.20
67194;DHT22;54121;53.508;49.422;2023-05-29T03:27:01;33.60;26.90
67194;DHT22;54121;53.508;49.422;2023-05-29T03:29:29;34.80;25.50
67194;DHT22;54121;53.508;49.422;2023-05-29T03:31:56;35.50;24.20
67194;DHT22;54121;53.508;49.422;2023-05-29T03:34:22;35.70;23.50
67194;DHT22;54121;53.508;49.422;2023-05-29T03:36:48;36.20;22.80
67194;DHT22;54121;53.508;49.422;2023-05-29T03:39:15;36.50;22.20
67194;DHT22;54121;53.508;49.422;2023-05-29T03:41:41;37.20;21.30
67194;DHT22;54121;53.508;49.422;2023-05-29T03:44:08;38.10;20.20
67194;DHT22;54121;53.508;49.422;2023-05-29T03:46:35;38.50;19.70
67194;DHT22;54121;53.508;49.422;2023-05-29T03:49:02;38.60;19.60
67194;DHT22;54121;53.508;49.422;2023-05-29T03:51:28;38.50;19.40
67194;DHT22;54121;53.508;49.422;2023-05-29T03:53:54;40.00;18.30
67194;DHT22;54121;53.508;49.422;2023-05-29T03:56:20;41.30;16.80
67194;DHT22;54121;53.508;49.422;2023-05-29T03:58:47;41.30;16.40
67194;DHT22;54121;53.508;49.422;2023-05-29T04:01:14;40.70;16.20
67194;DHT22;54121;53.508;49.422;2023-05-29T04:03:40;41.20;15.80
67194;DHT22;54121;53.508;49.422;2023-05-29T04:06:06;41.50;15.20
67194;DHT22;54121;53.508;49.422;2023-05-29T04:08:33;42.50;14.60
67194;DHT22;54121;53.508;49.422;2023-05-29T04:10:59;42.20;14.70
67194;DHT22;54121;53.508;49.422;2023-05-29T04:13:25;43.00;14.70
67194;DHT22;54121;53.508;49.422;2023-05-29T04:15:51;42.80;14.60
67194;DHT22;54121;53.508;49.422;2023-05-29T04:18:19;42.80;14.30
67194;DHT22;54121;53.508;49.422;2023-05-29T04:20:45;43.30;13.30
67194;DHT22;54121;53.508;49.422;2023-05-29T04:23:13;42.70;13.10
67194;DHT22;54121;53.508;49.422;2023-05-29T04:25:39;42.60;13.40
67194;DHT22;54121;53.508;49.422;2023-05-29T04:28:05;42.70;13.40
67194;DHT22;54121;53.508;49.422;2023-05-29T04:30:32;43.50;14.00
67194;DHT22;54121;53.508;49.422;2023-05-29T04:32:59;44.00;12.50
67194;DHT22;54121;53.508;49.422;2023-05-29T04:35:26;42.70;13.40
67194;DHT22;54121;53.508;49.422;2023-05-29T04:37:54;42.90;13.40
67194;DHT22;54121;53.508;49.422;2023-05-29T04:40:22;43.10;13.20
67194;DHT22;54121;53.508;49.422;2023-05-29T04:42:48;43.90;12.70
67194;DHT22;54121;53.508;49.422;2023-05-29T04:45:15;44.10;11.80
67194;DHT22;54121;53.508;49.422;2023-05-29T04:47:42;43.20;11.40
67194;DHT22;54121;53.508;49.422;2023-05-29T04:50:11;42.70;11.50
67194;DHT22;54121;53.508;49.422;2023-05-29T04:52:38;43.60;11.40
67194;DHT22;54121;53.508;49.422;2023-05-29T04:55:04;45.60;9.80
67194;DHT22;54121;53.508;49.422;2023-05-29T04:57:31;45.70;9.20
67194;DHT22;54121;53.508;49.422;2023-05-29T04:59:58;45.20;9.50
67194;DHT22;54121;53.508;49.422;2023-05-29T05:02:24;44.90;9.30
67194;DHT22;54121;53.508;49.422;2023-05-29T05:04:50;46.80;8.70
67194;DHT22;54121;53.508;49.422;2023-05-29T05:07:17;47.70;8.80
67194;DHT22;54121;53.508;49.422;2023-05-29T05:09:43;47.20;7.90
67194;DHT22;54121;53.508;49.422;2023-05-29T05:12:09;46.40;8.40
67194;DHT22;54121;53.508;49.422;2023-05-29T05:14:36;47.00;8.30
67194;DHT22;54121;53.508;49.422;2023-05-29T05:17:02;48.40;7.50
67194;DHT22;54121;53.508;49.422;2023-05-29T05:19:28;48.40;7.50
67194;DHT22;54121;53.508;49.422;2023-05-29T05:21:54;49.30;7.80
67194;DHT22;54121;53.508;49.422;2023-05-29T05:24:21;48.20;8.70
67194;DHT22;54121;53.508;49.422;2023-05-29T05:26:47;48.90;8.20
67194;DHT22;54121;53.508;49.422;2023-05-29T05:29:14;49.70;6.80
67194;DHT22;54121;53.508;49.422;2023-05-29T05:31:40;49.20;6.90
67194;DHT22;54121;53.508;49.422;2023-05-29T05:34:06;49.70;8.00
67194;DHT22;54121;53.508;49.422;2023-05-29T05:36:32;50.10;6.60
67194;DHT22;54121;53.508;49.422;2023-05-29T05:38:59;49.50;6.10
67194;DHT22;54121;53.508;49.422;2023-05-29T05:41:25;49.50;5.80
67194;DHT22;54121;53.508;49.422;2023-05-29T05:43:52;49.20;4.70
67194;DHT22;54121;53.508;49.422;2023-05-29T05:46:18;49.10;5.70
67194;DHT22;54121;53.508;49.422;2023-05-29T05:48:45;49.50;6.10
67194;DHT22;54121;53.508;49.422;2023-05-29T05:51:11;47.60;6.10
67194;DHT22;54121;53.508;49.422;2023-05-29T05:53:38;48.40;5.40
67194;DHT22;54121;53.508;49.422;2023-05-29T05:56:05;48.00;6.00
67194;DHT22;54121;53.508;49.422;2023-05-29T05:58:31;46.50;7.40
67194;DHT22;54121;53.508;49.422;2023-05-29T06:00:58;47.00;7.00
67194;DHT22;54121;53.508;49.422;2023-05-29T06:03:25;47.80;6.80
67194;DHT22;54121;53.508;49.422;2023-05-29T06:05:52;47.70;7.00
67194;DHT22;54121;53.508;49.422;2023-05-29T06:08:20;47.60;6.70
67194;DHT22;54121;53.508;49.422;2023-05-29T06:10:46;48.60;5.30
67194;DHT22;54121;53.508;49.422;2023-05-29T06:13:12;47.10;6.00
67194;DHT22;54121;53.508;49.422;2023-05-29T06:15:39;48.60;5.20
67194;DHT22;54121;53.508;49.422;2023-05-29T06:18:05;48.60;4.90
67194;DHT22;54121;53.508;49.422;2023-05-29T06:20:31;48.70;4.50
67194;DHT22;54121;53.508;49.422;2023-05-29T06:22:57;47.70;4.60
67194;DHT22;54121;53.508;49.422;2023-05-29T06:25:24;48.40;4.40
67194;DHT22;54121;53.508;49.422;2023-05-29T06:27:59;48.50;4.20
67194;DHT22;54121;53.508;49.422;2023-05-29T06:30:26;48.90;2.90
67194;DHT22;54121;53.508;49.422;2023-05-29T06:32:52;48.60;2.70
67194;DHT22;54121;53.508;49.422;2023-05-29T06:35:18;47.70;3.30
67194;DHT22;54121;53.508;49.422;2023-05-29T06:37:45;47.80;3.70
67194;DHT22;54121;53.508;49.422;2023-05-29T06:40:12;48.40;3.50
67194;DHT22;54121;53.508;49.422;2023-05-29T06:42:38;47.90;3.60
67194;DHT22;54121;53.508;49.422;2023-05-29T06:45:05;48.00;3.50
67194;DHT22;54121;53.508;49.422;2023-05-29T06:47:32;48.80;3.40
67194;DHT22;54121;53.508;49.422;2023-05-29T06:49:58;49.00;3.50
67194;DHT22;54121;53.508;49.422;2023-05-29T06:52:24;48.30;3.60
67194;DHT22;54121;53.508;49.422;2023-05-29T06:54:51;48.30;3.20
67194;DHT22;54121;53.508;49.422;2023-05-29T06:57:17;48.20;3.10
67194;DHT22;54121;53.508;49.422;2023-05-29T06:59:44;48.30;4.10
67194;DHT22;54121;53.508;49.422;2023-05-29T07:02:11;48.70;2.70
67194;DHT22;54121;53.508;49.422;2023-05-29T07:04:37;48.90;2.60
67194;DHT22;54121;53.508;49.422;2023-05-29T07:07:03;47.90;3.20
67194;DHT22;54121;53.508;49.422;2023-05-29T07:09:29;48.50;3.00
67194;DHT22;54121;53.508;49.422;2023-05-29T07:11:56;48.00;3.10
67194;DHT22;54121;53.508;49.422;2023-05-29T07:14:22;47.80;3.10
67194;DHT22;54121;53.508;49.422;2023-05-29T07:16:48;47.30;3.60
67194;DHT22;54121;53.508;49.422;2023-05-29T07:19:14;47.60;3.10
67194;DHT22;54121;53.508;49.422;2023-05-29T07:21:42;47.70;3.00
67194;DHT22;54121;53.508;49.422;2023-05-29T07:24:08;47.00;3.60
67194;DHT22;54121;53.508;49.422;2023-05-29T07:26:35;45.60;4.30
67194;DHT22;54121;53.508;49.422;2023-05-29T07:29:01;45.40;4.10
67194;DHT22;54121;53.508;49.422;2023-05-29T07:31:27;46.20;4.20
67194;DHT22;54121;53.508;49.422;2023-05-29T07:33:54;45.30;4.40
67194;DHT22;54121;53.508;49.422;2023-05-29T07:36:20;45.90;3.90
67194;DHT22;54121;53.508;49.422;2023-05-29T07:38:47;46.10;3.90
67194;DHT22;54121;53.508;49.422;2023-05-29T07:41:15;45.50;4.30
67194;DHT22;54121;53.508;49.422;2023-05-29T07:43:41;45.60;4.20
67194;DHT22;54121;53.508;49.422;2023-05-29T07:46:07;45.80;4.50
67194;DHT22;54121;53.508;49.422;2023-05-29T07:48:35;45.70;4.70
67194;DHT22;54121;53.508;49.422;2023-05-29T07:51:01;46.20;4.40
67194;DHT22;54121;53.508;49.422;2023-05-29T07:53:27;46.30;4.10
67194;DHT22;54121;53.508;49.422;2023-05-29T07:55:54;46.00;4.00
67194;DHT22;54121;53.508;49.422;2023-05-29T07:58:21;44.40;5.00
67194;DHT22;54121;53.508;49.422;2023-05-29T08:00:47;45.00;4.90
67194;DHT22;54121;53.508;49.422;2023-05-29T08:03:14;44.10;5.30
67194;DHT22;54121;53.508;49.422;2023-05-29T08:05:41;45.00;4.90
67194;DHT22;54121;53.508;49.422;2023-05-29T08:08:07;44.60;5.00
67194;DHT22;54121;53.508;49.422;2023-05-29T08:10:34;43.50;5.60
67194;DHT22;54121;53.508;49.422;2023-05-29T08:13:00;44.20;5.40
67194;DHT22;54121;53.508;49.422;2023-05-29T08:15:26;44.70;5.30
67194;DHT22;54121;53.508;49.422;2023-05-29T08:17:53;45.00;5.10
67194;DHT22;54121;53.508;49.422;2023-05-29T08:20:19;43.20;6.20
67194;DHT22;54121;53.508;49.422;2023-05-29T08:22:46;43.90;6.00
67194;DHT22;54121;53.508;49.422;2023-05-29T08:25:12;44.10;5.90
67194;DHT22;54121;53.508;49.422;2023-05-29T08:27:38;44.50;5.90
67194;DHT22;54121;53.508;49.422;2023-05-29T08:30:13;44.10;6.20
67194;DHT22;54121;53.508;49.422;2023-05-29T08:32:42;44.20;6.10
67194;DHT22;54121;53.508;49.422;2023-05-29T08:35:08;44.30;6.20
67194;DHT22;54121;53.508;49.422;2023-05-29T08:37:35;44.50;5.80
67194;DHT22;54121;53.508;49.422;2023-05-29T08:40:01;45.50;5.00
67194;DHT22;54121;53.508;49.422;2023-05-29T08:42:33;45.90;4.40
67194;DHT22;54121;53.508;49.422;2023-05-29T08:45:02;46.00;4.30
67194;DHT22;54121;53.508;49.422;2023-05-29T08:47:32;46.10;4.20
67194;DHT22;54121;53.508;49.422;2023-05-29T08:49:58;45.90;5.50
67194;DHT22;54121;53.508;49.422;2023-05-29T08:52:26;45.80;4.80
67194;DHT22;54121;53.508;49.422;2023-05-29T08:54:54;46.30;4.50
67194;DHT22;54121;53.508;49.422;2023-05-29T08:57:20;45.90;4.40
67194;DHT22;54121;53.508;49.422;2023-05-29T08:59:50;46.00;4.40
67194;DHT22;54121;53.508;49.422;2023-05-29T09:02:17;45.70;4.90
67194;DHT22;54121;53.508;49.422;2023-05-29T09:04:43;46.00;4.70
67194;DHT22;54121;53.508;49.422;2023-05-29T09:07:16;46.60;4.20
67194;DHT22;54121;53.508;49.422;2023-05-29T09:09:45;45.70;4.70
67194;DHT22;54121;53.508;49.422;2023-05-29T09:12:11;46.50;4.60
67194;DHT22;54121;53.508;49.422;2023-05-29T09:14:39;46.40;4.70
67194;DHT22;54121;53.508;49.422;2023-05-29T09:17:06;47.00;4.20
67194;DHT22;54121;53.508;49.422;2023-05-29T09:19:34;47.60;3.80
67194;DHT22;54121;53.508;49.422;2023-05-29T09:24:28;46.90;4.20
67194;DHT22;54121;53.508;49.422;2023-05-29T09:26:55;47.80;3.80
67194;DHT22;54121;53.508;49.422;2023-05-29T09:29:21;47.90;3.60
67194;DHT22;54121;53.508;49.422;2023-05-29T09:31:48;47.70;3.90
67194;DHT22;54121;53.508;49.422;2023-05-29T09:34:14;47.30;4.00
67194;DHT22;54121;53.508;49.422;2023-05-29T09:36:41;47.20;4.30
67194;DHT22;54121;53.508;49.422;2023-05-29T09:39:07;47.40;4.20
67194;DHT22;54121;53.508;49.422;2023-05-29T09:41:43;47.10;4.30
67194;DHT22;54121;53.508;49.422;2023-05-29T09:44:13;47.40;4.10
67194;DHT22;54121;53.508;49.422;2023-05-29T09:46:40;47.50;4.20
67194;DHT22;54121;53.508;49.422;2023-05-29T09:49:13;47.30;4.30
67194;DHT22;54121;53.508;49.422;2023-05-29T09:51:39;47.70;4.00
67194;DHT22;54121;53.508;49.422;2023-05-29T09:54:15;47.60;4.10
67194;DHT22;54121;53.508;49.422;2023-05-29T09:56:42;47.90;4.10
67194;DHT22;54121;53.508;49.422;2023-05-29T09:59:12;47.70;4.30
67194;DHT22;54121;53.508;49.422;2023-05-29T10:01:40;48.20;4.00
67194;DHT22;54121;53.508;49.422;2023-05-29T10:04:08;48.40;4.10
67194;DHT22;54121;53.508;49.422;2023-05-29T10:06:38;48.90;3.70
67194;DHT22;54121;53.508;49.422;2023-05-29T10:09:08;49.30;3.60
67194;DHT22;54121;53.508;49.422;2023-05-29T10:11:38;48.60;4.00
67194;DHT22;54121;53.508;49.422;2023-05-29T10:14:07;47.40;4.60
67194;DHT22;54121;53.508;49.422;2023-05-29T10:16:36;47.00;5.10
67194;DHT22;54121;53.508;49.422;2023-05-29T10:19:07;47.50;5.20
67194;DHT22;54121;53.508;49.422;2023-05-29T10:21:37;48.40;4.80
67194;DHT22;54121;53.508;49.422;2023-05-29T10:24:05;48.60;4.60
67194;DHT22;54121;53.508;49.422;2023-05-29T10:26:34;50.00;3.70
67194;DHT22;54121;53.508;49.422;2023-05-29T10:29:07;50.40;3.50
67194;DHT22;54121;53.508;49.422;2023-05-29T10:34:37;47.90;4.60
67194;DHT22;54121;53.508;49.422;2023-05-29T10:39:34;47.30;5.20
67194;DHT22;54121;53.508;49.422;2023-05-29T10:42:01;48.10;5.10
67194;DHT22;54121;53.508;49.422;2023-05-29T10:49:26;48.60;4.60
67194;DHT22;54121;53.508;49.422;2023-05-29T10:51:52;50.20;3.70
67194;DHT22;54121;53.508;49.422;2023-05-29T10:54:21;51.40;3.10
67194;DHT22;54121;53.508;49.422;2023-05-29T10:56:57;52.70;2.60
67194;DHT22;54121;53.508;49.422;2023-05-29T10:59:25;52.30;2.60
67194;DHT22;54121;53.508;49.422;2023-05-29T11:01:55;51.90;2.50
67194;DHT22;54121;53.508;49.422;2023-05-29T11:06:53;50.30;3.70
67194;DHT22;54121;53.508;49.422;2023-05-29T11:14:52;50.00;3.60
67194;DHT22;54121;53.508;49.422;2023-05-29T11:17:29;51.70;3.20
67194;DHT22;54121;53.508;49.422;2023-05-29T11:19:56;54.10;2.00
67194;DHT22;54121;53.508;49.422;2023-05-29T11:22:23;54.30;1.70
67194;DHT22;54121;53.508;49.422;2023-05-29T11:24:52;53.50;2.10
67194;DHT22;54121;53.508;49.422;2023-05-29T11:27:23;53.20;2.00
67194;DHT22;54121;53.508;49.422;2023-05-29T11:29:50;53.40;2.10
67194;DHT22;54121;53.508;49.422;2023-05-29T11:32:19;53.00;2.00
67194;DHT22;54121;53.508;49.422;2023-05-29T11:34:47;51.40;2.90
67194;DHT22;54121;53.508;49.422;2023-05-29T11:37:13;50.60;3.40
67194;DHT22;54121;53.508;49.422;2023-05-29T11:39:40;50.90;3.30
67194;DHT22;54121;53.508;49.422;2023-05-29T11:42:08;50.20;3.40
67194;DHT22;54121;53.508;49.422;2023-05-29T11:44:34;50.60;3.50
67194;DHT22;54121;53.508;49.422;2023-05-29T11:47:01;51.40;3.00
67194;DHT22;54121;53.508;49.422;2023-05-29T11:49:40;54.60;1.70
67194;DHT22;54121;53.508;49.422;2023-05-29T11:52:10;53.70;1.70
67194;DHT22;54121;53.508;49.422;2023-05-29T11:54:37;53.10;1.90
67194;DHT22;54121;53.508;49.422;2023-05-29T11:57:03;53.50;1.90
67194;DHT22;54121;53.508;49.422;2023-05-29T11:59:33;51.80;2.50
67194;DHT22;54121;53.508;49.422;2023-05-29T12:02:03;50.80;3.40
67194;DHT22;54121;53.508;49.422;2023-05-29T12:04:29;50.90;3.30
67194;DHT22;54121;53.508;49.422;2023-05-29T12:06:55;53.20;2.50
67194;DHT22;54121;53.508;49.422;2023-05-29T12:09:25;55.40;1.40
67194;DHT22;54121;53.508;49.422;2023-05-29T12:11:53;55.70;1.30
67194;DHT22;54121;53.508;49.422;2023-05-29T12:14:19;55.00;1.20
67194;DHT22;54121;53.508;49.422;2023-05-29T12:16:46;53.60;2.20
67194;DHT22;54121;53.508;49.422;2023-05-29T12:19:12;55.80;1.20
67194;DHT22;54121;53.508;49.422;2023-05-29T12:21:41;53.40;1.80
67194;DHT22;54121;53.508;49.422;2023-05-29T12:24:11;53.90;1.80
67194;DHT22;54121;53.508;49.422;2023-05-29T12:26:37;51.90;2.80
67194;DHT22;54121;53.508;49.422;2023-05-29T12:29:04;50.50;3.20
67194;DHT22;54121;53.508;49.422;2023-05-29T12:31:31;50.20;3.10
67194;DHT22;54121;53.508;49.422;2023-05-29T12:34:02;50.00;3.80
67194;DHT22;54121;53.508;49.422;2023-05-29T12:36:28;50.70;3.30
67194;DHT22;54121;53.508;49.422;2023-05-29T12:38:54;52.70;2.50
67194;DHT22;54121;53.508;49.422;2023-05-29T12:43:52;51.70;2.30
67194;DHT22;54121;53.508;49.422;2023-05-29T12:46:18;51.10;2.90
67194;DHT22;54121;53.508;49.422;2023-05-29T12:48:44;52.50;2.60
67194;DHT22;54121;53.508;49.422;2023-05-29T12:51:11;54.10;1.50
67194;DHT22;54121;53.508;49.422;2023-05-29T12:53:37;52.30;1.70
67194;DHT22;54121;53.508;49.422;2023-05-29T12:56:03;50.90;2.10
67194;DHT22;54121;53.508;49.422;2023-05-29T12:58:30;50.40;2.10
67194;DHT22;54121;53.508;49.422;2023-05-29T13:00:57;50.10;2.70
67194;DHT22;54121;53.508;49.422;2023-05-29T13:03:23;50.20;2.60
67194;DHT22;54121;53.508;49.422;2023-05-29T13:05:50;49.50;2.90
67194;DHT22;54121;53.508;49.422;2023-05-29T13:08:16;50.20;2.90
67194;DHT22;54121;53.508;49.422;2023-05-29T13:10:43;49.80;2.80
67194;DHT22;54121;53.508;49.422;2023-05-29T13:13:10;50.90;2.60
67194;DHT22;54121;53.508;49.422;2023-05-29T13:15:38;49.10;3.50
67194;DHT22;54121;53.508;49.422;2023-05-29T13:18:06;49.00;3.70
67194;DHT22;54121;53.508;49.422;2023-05-29T13:20:32;49.40;3.20
67194;DHT22;54121;53.508;49.422;2023-05-29T13:22:58;50.10;2.50
67194;DHT22;54121;53.508;49.422;2023-05-29T13:25:25;48.80;2.70
67194;DHT22;54121;53.508;49.422;2023-05-29T13:27:51;49.10;3.00
67194;DHT22;54121;53.508;49.422;2023-05-29T13:30:18;48.90;2.70
67194;DHT22;54121;53.508;49.422;2023-05-29T13:32:44;49.00;4.10
67194;DHT22;54121;53.508;49.422;2023-05-29T13:35:11;48.80;2.80
67194;DHT22;54121;53.508;49.422;2023-05-29T13:37:37;48.10;2.80
67194;DHT22;54121;53.508;49.422;2023-05-29T13:40:04;48.10;2.90
67194;DHT22;54121;53.508;49.422;2023-05-29T13:42:30;48.90;2.60
67194;DHT22;54121;53.508;49.422;2023-05-29T13:44:57;50.70;1.60
67194;DHT22;54121;53.508;49.422;2023-05-29T13:47:23;50.20;1.50
67194;DHT22;54121;53.508;49.422;2023-05-29T13:49:49;48.90;2.50
67194;DHT22;54121;53.508;49.422;2023-05-29T13:52:15;48.00;3.10
67194;DHT22;54121;53.508;49.422;2023-05-29T13:54:42;47.20;2.90
67194;DHT22;54121;53.508;49.422;2023-05-29T13:57:08;47.10;3.00
67194;DHT22;54121;53.508;49.422;2023-05-29T13:59:35;46.80;3.10
67194;DHT22;54121;53.508;49.422;2023-05-29T14:02:02;46.80;3.20
67194;DHT22;54121;53.508;49.422;2023-05-29T14:04:29;46.50;3.00
67194;DHT22;54121;53.508;49.422;2023-05-29T14:06:56;45.90;3.30
67194;DHT22;54121;53.508;49.422;2023-05-29T14:09:23;46.20;4.00
67194;DHT22;54121;53.508;49.422;2023-05-29T14:11:58;46.10;3.10
67194;DHT22;54121;53.508;49.422;2023-05-29T14:14:25;45.80;3.30
67194;DHT22;54121;53.508;49.422;2023-05-29T14:16:51;45.70;3.30
67194;DHT22;54121;53.508;49.422;2023-05-29T14:19:21;45.10;3.30
67194;DHT22;54121;53.508;49.422;2023-05-29T14:21:47;44.70;3.30
67194;DHT22;54121;53.508;49.422;2023-05-29T14:24:13;44.00;3.90
67194;DHT22;54121;53.508;49.422;2023-05-29T14:26:41;43.80;4.00
67194;DHT22;54121;53.508;49.422;2023-05-29T14:29:11;43.40;4.40
67194;DHT22;54121;53.508;49.422;2023-05-29T14:31:37;43.20;4.40
67194;DHT22;54121;53.508;49.422;2023-05-29T14:34:03;43.10;4.50
67194;DHT22;54121;53.508;49.422;2023-05-29T14:36:30;43.10;4.80
67194;DHT22;54121;53.508;49.422;2023-05-29T14:38:56;42.60;5.10
67194;DHT22;54121;53.508;49.422;2023-05-29T14:41:22;42.50;5.20
67194;DHT22;54121;53.508;49.422;2023-05-29T14:43:50;42.40;5.20
67194;DHT22;54121;53.508;49.422;2023-05-29T14:46:17;42.20;5.20
67194;DHT22;54121;53.508;49.422;2023-05-29T14:48:43;41.70;5.60
67194;DHT22;54121;53.508;49.422;2023-05-29T14:51:10;41.90;5.60
67194;DHT22;54121;53.508;49.422;2023-05-29T14:53:37;41.70;5.70
67194;DHT22;54121;53.508;49.422;2023-05-29T14:56:04;40.90;5.80
67194;DHT22;54121;53.508;49.422;2023-05-29T14:58:31;40.90;6.20
67194;DHT22;54121;53.508;49.422;2023-05-29T15:00:58;40.70;6.20
67194;DHT22;54121;53.508;49.422;2023-05-29T15:03:24;40.50;6.20
67194;DHT22;54121;53.508;49.422;2023-05-29T15:05:52;40.40;6.40
67194;DHT22;54121;53.508;49.422;2023-05-29T15:08:19;40.30;6.30
67194;DHT22;54121;53.508;49.422;2023-05-29T15:10:46;40.40;6.10
67194;DHT22;54121;53.508;49.422;2023-05-29T15:13:12;40.50;6.00
67194;DHT22;54121;53.508;49.422;2023-05-29T15:15:38;40.20;6.10
67194;DHT22;54121;53.508;49.422;2023-05-29T15:18:05;39.70;6.50
67194;DHT22;54121;53.508;49.422;2023-05-29T15:20:31;39.60;6.60
67194;DHT22;54121;53.508;49.422;2023-05-29T15:22:57;39.30;6.60
67194;DHT22;54121;53.508;49.422;2023-05-29T15:25:24;39.40;6.90
67194;DHT22;54121;53.508;49.422;2023-05-29T15:27:50;39.40;6.90
67194;DHT22;54121;53.508;49.422;2023-05-29T15:30:18;39.20;7.00
67194;DHT22;54121;53.508;49.422;2023-05-29T15:32:45;38.80;7.10
67194;DHT22;54121;53.508;49.422;2023-05-29T15:35:14;38.80;7.40
67194;DHT22;54121;53.508;49.422;2023-05-29T15:37:41;38.90;7.30
67194;DHT22;54121;53.508;49.422;2023-05-29T15:40:08;38.90;7.20
67194;DHT22;54121;53.508;49.422;2023-05-29T15:42:37;38.40;7.40
67194;DHT22;54121;53.508;49.422;2023-05-29T15:45:03;38.10;7.40
67194;DHT22;54121;53.508;49.422;2023-05-29T15:47:30;37.80;7.60
67194;DHT22;54121;53.508;49.422;2023-05-29T15:49:57;37.80;7.70
67194;DHT22;54121;53.508;49.422;2023-05-29T15:52:24;37.40;8.10
67194;DHT22;54121;53.508;49.422;2023-05-29T15:54:51;37.40;8.20